Time,TemperatureF,DewpointF,PressureIn,WindDirection,WindDirectionDegrees,WindSpeedMPH,WindSpeedGustMPH,Humidity,HourlyPrecipIn,Conditions,Clouds,dailyrainin,SoftwareType,DateUTC
2013-02-21 00:09:00,19.1,19.0,29.87,NE,53,2.0,3.0,98,0.00,,,0.00,weatherlink.com 1.10,2013-02-21 07:09:00,
2013-02-21 00:24:00,18.9,19.0,29.87,NE,53,3.0,5.0,98,0.00,,,0.00,weatherlink.com 1.10,2013-02-21 07:24:00,
2013-02-21 00:39:00,18.9,19.0,29.87,NE,53,1.0,3.0,98,0.00,,,0.00,weatherlink.com 1.10,2013-02-21 07:39:00,
2013-02-21 00:54:00,18.9,19.0,29.87,NE,53,3.0,3.0,98,0.00,,,0.00,weatherlink.com 1.10,2013-02-21 07:54:00,
2013-02-21 01:09:00,18.8,19.0,29.87,East,92,1.0,5.0,99,0.00,,,0.00,weatherlink.com 1.10,2013-02-21 08:09:00,
2013-02-21 01:24:00,16.8,17.0,29.87,ESE,107,3.0,5.0,99,0.00,,,0.00,weatherlink.com 1.10,2013-02-21 08:24:00,
2013-02-21 01:39:00,16.0,16.0,29.87,ENE,78,1.0,4.0,98,0.00,,,0.00,weatherlink.com 1.10,2013-02-21 08:39:00,
2013-02-21 01:54:00,15.8,16.0,29.87,ESE,123,0.0,3.0,99,0.00,,,0.00,weatherlink.com 1.10,2013-02-21 08:54:00,
2013-02-21 02:09:00,15.7,15.0,29.87,NE,55,3.0,3.0,98,0.00,,,0.00,weatherlink.com 1.10,2013-02-21 09:09:00,
2013-02-21 02:24:00,15.9,16.0,29.87,East,92,0.0,1.0,99,0.00,,,0.00,weatherlink.com 1.10,2013-02-21 09:24:00,
2013-02-21 02:39:00,16.1,16.0,29.87,ESE,119,1.0,1.0,99,0.00,,,0.00,weatherlink.com 1.10,2013-02-21 09:39:00,
2013-02-21 02:54:00,15.9,16.0,29.86,ESE,117,0.0,1.0,98,0.00,,,0.00,weatherlink.com 1.10,2013-02-21 09:54:00,
2013-02-21 03:09:00,14.8,14.0,29.86,East,96,2.0,3.0,98,0.00,,,0.00,weatherlink.com 1.10,2013-02-21 10:09:00,
2013-02-21 03:24:00,16.0,15.0,29.86,NE,53,3.0,6.0,97,0.00,,,0.00,weatherlink.com 1.10,2013-02-21 10:24:00,
2013-02-21 03:39:00,15.6,15.0,29.86,NE,53,3.0,3.0,97,0.00,,,0.00,weatherlink.com 1.10,2013-02-21 10:39:00,
2013-02-21 03:55:00,15.5,15.0,29.86,NE,53,3.0,4.0,97,0.00,,,0.00,weatherlink.com 1.10,2013-02-21 10:55:00,
2013-02-21 04:09:00,15.4,15.0,29.88,NE,53,2.0,4.0,97,0.00,,,0.00,weatherlink.com 1.10,2013-02-21 11:09:00,
2013-02-21 04:24:00,15.3,15.0,29.89,NE,53,2.0,4.0,97,0.00,,,0.00,weatherlink.com 1.10,2013-02-21 11:24:00,
2013-02-21 04:39:00,14.5,14.0,29.90,NE,38,4.0,6.0,97,0.00,,,0.00,weatherlink.com 1.10,2013-02-21 11:39:00,
2013-02-21 04:54:00,14.1,13.0,29.91,NE,46,3.0,5.0,97,0.00,,,0.00,weatherlink.com 1.10,2013-02-21 11:54:00,
2013-02-21 05:09:00,13.8,13.0,29.91,NE,44,4.0,5.0,97,0.00,,,0.00,weatherlink.com 1.10,2013-02-21 12:09:00,
2013-02-21 05:24:00,13.5,13.0,29.91,NE,36,3.0,4.0,97,0.00,,,0.00,weatherlink.com 1.10,2013-02-21 12:24:00,
2013-02-21 05:39:00,13.2,13.0,29.92,NNE,30,2.0,5.0,97,0.00,,,0.00,weatherlink.com 1.10,2013-02-21 12:39:00,
2013-02-21 05:55:00,13.1,12.0,29.92,NE,36,3.0,4.0,97,0.00,,,0.00,weatherlink.com 1.10,2013-02-21 12:55:00,
2013-02-21 06:10:00,12.9,12.0,29.92,NE,36,3.0,4.0,97,0.00,,,0.00,weatherlink.com 1.10,2013-02-21 13:10:00,
2013-02-21 06:25:00,13.0,12.0,29.92,NE,39,1.0,4.0,97,0.00,,,0.00,weatherlink.com 1.10,2013-02-21 13:25:00,
2013-02-21 06:40:00,13.0,12.0,29.93,NE,40,1.0,4.0,97,0.00,,,0.00,weatherlink.com 1.10,2013-02-21 13:40:00,
2013-02-21 06:55:00,13.0,12.0,29.94,NE,40,1.0,3.0,97,0.00,,,0.00,weatherlink.com 1.10,2013-02-21 13:55:00,
2013-02-21 07:10:00,13.0,12.0,29.95,NE,40,0.0,3.0,97,0.00,,,0.00,weatherlink.com 1.10,2013-02-21 14:10:00,
2013-02-21 07:25:00,13.1,12.0,29.95,NE,40,0.0,0.0,97,0.00,,,0.00,weatherlink.com 1.10,2013-02-21 14:25:00,
2013-02-21 07:40:00,13.2,13.0,29.96,NE,40,0.0,1.0,97,0.00,,,0.00,weatherlink.com 1.10,2013-02-21 14:40:00,
2013-02-21 07:55:00,13.9,13.0,29.97,NE,53,0.0,0.0,97,0.00,,,0.00,weatherlink.com 1.10,2013-02-21 14:55:00,
2013-02-21 08:10:00,14.2,14.0,29.97,NE,53,0.0,0.0,97,0.00,,,0.00,weatherlink.com 1.10,2013-02-21 15:10:00,
2013-02-21 08:25:00,14.7,14.0,29.97,NE,53,0.0,0.0,97,0.00,,,0.00,weatherlink.com 1.10,2013-02-21 15:25:00,
2013-02-21 08:40:00,15.5,15.0,29.97,NE,53,0.0,0.0,97,0.00,,,0.00,weatherlink.com 1.10,2013-02-21 15:40:00,
2013-02-21 08:55:00,16.5,16.0,29.97,NE,53,0.0,0.0,98,0.00,,,0.00,weatherlink.com 1.10,2013-02-21 15:55:00,
2013-02-21 09:10:00,17.3,17.0,29.98,NE,53,0.0,0.0,98,0.00,,,0.00,weatherlink.com 1.10,2013-02-21 16:10:00,
2013-02-21 09:25:00,18.0,18.0,29.99,NE,53,0.0,0.0,98,0.00,,,0.00,weatherlink.com 1.10,2013-02-21 16:25:00,
2013-02-21 09:40:00,20.7,21.0,29.99,NE,53,0.0,0.0,99,0.00,,,0.00,weatherlink.com 1.10,2013-02-21 16:40:00,
2013-02-21 09:55:00,21.8,21.0,29.99,NE,53,0.0,4.0,98,0.00,,,0.00,weatherlink.com 1.10,2013-02-21 16:55:00,
2013-02-21 10:10:00,21.4,21.0,29.99,NE,53,0.0,1.0,98,0.00,,,0.00,weatherlink.com 1.10,2013-02-21 17:10:00,
2013-02-21 10:25:00,21.8,21.0,29.99,NE,53,0.0,0.0,98,0.01,,,0.01,weatherlink.com 1.10,2013-02-21 17:25:00,
2013-02-21 10:40:00,22.3,22.0,29.99,NE,53,0.0,0.0,97,0.05,,,0.05,weatherlink.com 1.10,2013-02-21 17:40:00,
2013-02-21 10:55:00,23.1,23.0,29.99,NE,53,0.0,0.0,99,0.08,,,0.08,weatherlink.com 1.10,2013-02-21 17:55:00,
2013-02-21 11:10:00,24.5,24.0,29.99,NE,53,0.0,0.0,99,0.09,,,0.09,weatherlink.com 1.10,2013-02-21 18:10:00,
2013-02-21 11:25:00,25.2,25.0,29.98,NE,53,0.0,0.0,98,0.08,,,0.10,weatherlink.com 1.10,2013-02-21 18:25:00,
2013-02-21 11:40:00,24.5,24.0,29.98,NE,53,0.0,2.0,98,0.05,,,0.11,weatherlink.com 1.10,2013-02-21 18:40:00,
2013-02-21 11:55:00,23.8,23.0,29.97,NE,53,0.0,0.0,97,0.04,,,0.12,weatherlink.com 1.10,2013-02-21 18:55:00,
2013-02-21 12:10:00,23.0,22.0,29.97,NE,53,0.0,0.0,97,0.04,,,0.13,weatherlink.com 1.10,2013-02-21 19:10:00,
2013-02-21 12:25:00,23.6,23.0,29.96,NE,53,0.0,0.0,98,0.04,,,0.14,weatherlink.com 1.10,2013-02-21 19:25:00,
2013-02-21 12:40:00,24.7,24.0,29.95,NE,53,0.0,0.0,98,0.04,,,0.15,weatherlink.com 1.10,2013-02-21 19:40:00,
2013-02-21 12:55:00,25.8,25.0,29.95,NE,53,0.0,0.0,98,0.03,,,0.16,weatherlink.com 1.10,2013-02-21 19:55:00,
2013-02-21 13:10:00,26.1,25.0,29.94,NE,53,0.0,0.0,97,0.04,,,0.17,weatherlink.com 1.10,2013-02-21 20:10:00,
2013-02-21 13:25:00,28.1,28.0,29.94,NE,53,0.0,0.0,99,0.04,,,0.18,weatherlink.com 1.10,2013-02-21 20:25:00,
2013-02-21 13:40:00,28.5,28.0,29.94,NE,53,0.0,0.0,96,0.04,,,0.19,weatherlink.com 1.10,2013-02-21 20:40:00,
2013-02-21 13:55:00,26.8,26.0,29.94,NE,53,0.0,7.0,96,0.04,,,0.20,weatherlink.com 1.10,2013-02-21 20:55:00,
2013-02-21 14:10:00,27.9,27.0,29.94,NE,53,0.0,5.0,98,0.03,,,0.20,weatherlink.com 1.10,2013-02-21 21:10:00,
2013-02-21 14:25:00,28.1,28.0,29.94,NE,53,0.0,0.0,99,0.03,,,0.21,weatherlink.com 1.10,2013-02-21 21:25:00,
2013-02-21 14:40:00,29.6,29.0,29.94,NE,53,0.0,0.0,99,0.02,,,0.21,weatherlink.com 1.10,2013-02-21 21:40:00,
2013-02-21 14:55:00,30.3,30.0,29.94,NE,53,0.0,0.0,97,0.01,,,0.21,weatherlink.com 1.10,2013-02-21 21:55:00,
2013-02-21 15:10:00,29.9,29.0,29.95,NE,53,0.0,0.0,96,0.01,,,0.21,weatherlink.com 1.10,2013-02-21 22:10:00,
2013-02-21 15:25:00,29.2,29.0,29.95,NE,53,0.0,0.0,98,0.00,,,0.21,weatherlink.com 1.10,2013-02-21 22:25:00,
2013-02-21 15:40:00,28.2,28.0,29.96,NE,53,0.0,0.0,97,0.00,,,0.21,weatherlink.com 1.10,2013-02-21 22:40:00,
2013-02-21 15:55:00,28.2,28.0,29.97,NE,53,0.0,0.0,99,0.00,,,0.21,weatherlink.com 1.10,2013-02-21 22:55:00,
2013-02-21 16:10:00,27.7,27.0,29.98,NE,53,0.0,0.0,98,0.00,,,0.21,weatherlink.com 1.10,2013-02-21 23:10:00,
2013-02-21 16:25:00,26.4,26.0,29.98,NE,53,0.0,0.0,98,0.00,,,0.21,weatherlink.com 1.10,2013-02-21 23:25:00,
2013-02-21 16:41:00,26.1,26.0,29.98,NE,53,0.0,0.0,98,0.00,,,0.21,weatherlink.com 1.10,2013-02-21 23:41:00,
2013-02-21 16:55:00,25.2,25.0,29.99,NE,53,0.0,0.0,98,0.00,,,0.21,weatherlink.com 1.10,2013-02-21 23:55:00,
2013-02-21 17:10:00,24.5,24.0,30.00,NE,53,0.0,0.0,98,0.00,,,0.21,weatherlink.com 1.10,2013-02-22 00:10:00,
2013-02-21 17:25:00,23.7,23.0,30.00,NE,53,0.0,0.0,98,0.00,,,0.21,weatherlink.com 1.10,2013-02-22 00:25:00,
2013-02-21 17:40:00,23.2,23.0,30.01,NE,53,0.0,0.0,98,0.00,,,0.21,weatherlink.com 1.10,2013-02-22 00:40:00,
2013-02-21 17:56:00,23.1,23.0,30.02,NE,53,0.0,0.0,99,0.00,,,0.21,weatherlink.com 1.10,2013-02-22 00:56:00,
2013-02-21 18:11:00,22.8,23.0,30.03,NE,53,0.0,0.0,99,0.00,,,0.21,weatherlink.com 1.10,2013-02-22 01:11:00,
2013-02-21 18:26:00,22.6,22.0,30.04,NE,53,0.0,0.0,99,0.00,,,0.21,weatherlink.com 1.10,2013-02-22 01:26:00,
2013-02-21 18:41:00,22.4,22.0,30.04,NE,53,0.0,4.0,99,0.00,,,0.21,weatherlink.com 1.10,2013-02-22 01:41:00,
2013-02-21 18:56:00,22.1,22.0,30.05,NE,53,0.0,4.0,99,0.00,,,0.21,weatherlink.com 1.10,2013-02-22 01:56:00,
2013-02-21 19:11:00,21.7,22.0,30.05,NE,53,0.0,0.0,99,0.00,,,0.21,weatherlink.com 1.10,2013-02-22 02:11:00,
2013-02-21 19:26:00,21.5,21.0,30.06,NE,53,0.0,0.0,99,0.00,,,0.21,weatherlink.com 1.10,2013-02-22 02:26:00,
2013-02-21 19:41:00,21.4,21.0,30.06,NE,53,0.0,0.0,99,0.00,,,0.21,weatherlink.com 1.10,2013-02-22 02:41:00,
2013-02-21 19:56:00,21.3,21.0,30.07,NE,53,0.0,0.0,99,0.00,,,0.21,weatherlink.com 1.10,2013-02-22 02:56:00,
2013-02-21 20:11:00,21.2,21.0,30.07,NE,53,0.0,0.0,99,0.00,,,0.21,weatherlink.com 1.10,2013-02-22 03:11:00,
2013-02-21 20:26:00,21.2,21.0,30.07,NE,53,0.0,0.0,99,0.00,,,0.21,weatherlink.com 1.10,2013-02-22 03:26:00,
2013-02-21 20:41:00,21.2,21.0,30.08,NE,53,0.0,0.0,99,0.00,,,0.21,weatherlink.com 1.10,2013-02-22 03:41:00,
2013-02-21 20:56:00,21.2,21.0,30.08,NE,53,0.0,0.0,99,0.00,,,0.21,weatherlink.com 1.10,2013-02-22 03:56:00,
2013-02-21 21:11:00,21.2,21.0,30.08,NE,53,0.0,0.0,99,0.00,,,0.21,weatherlink.com 1.10,2013-02-22 04:11:00,
2013-02-21 21:26:00,21.2,21.0,30.08,NE,53,0.0,0.0,99,0.00,,,0.21,weatherlink.com 1.10,2013-02-22 04:26:00,
2013-02-21 21:41:00,21.2,21.0,30.08,NE,53,0.0,0.0,99,0.00,,,0.21,weatherlink.com 1.10,2013-02-22 04:41:00,
2013-02-21 21:56:00,21.3,21.0,30.08,NE,53,0.0,0.0,99,0.00,,,0.21,weatherlink.com 1.10,2013-02-22 04:56:00,
2013-02-21 22:26:00,21.3,21.0,30.08,NE,53,0.0,0.0,99,0.00,,,0.21,weatherlink.com 1.10,2013-02-22 05:26:00,
2013-02-21 22:41:00,21.2,21.0,30.07,NE,53,0.0,0.0,99,0.00,,,0.21,weatherlink.com 1.10,2013-02-22 05:41:00,
2013-02-21 22:56:00,20.9,21.0,30.06,NE,53,0.0,0.0,99,0.00,,,0.21,weatherlink.com 1.10,2013-02-22 05:56:00,
2013-02-21 23:11:00,20.3,20.0,30.06,NE,53,0.0,0.0,99,0.00,,,0.21,weatherlink.com 1.10,2013-02-22 06:11:00,
2013-02-21 23:26:00,19.2,19.0,30.06,NE,53,0.0,0.0,98,0.00,,,0.21,weatherlink.com 1.10,2013-02-22 06:26:00,
2013-02-21 23:41:00,17.3,16.0,30.06,SSW,199,3.0,4.0,96,0.00,,,0.21,weatherlink.com 1.10,2013-02-22 06:41:00,
2013-02-21 23:56:00,16.5,16.0,30.06,SSW,199,3.0,5.0,97,0.00,,,0.21,weatherlink.com 1.10,2013-02-22 06:56:00,